createdAt,value
2022-08-23T00:02:04.093Z,99048.63
2022-08-23T00:04:39.955Z,99044.06
2022-08-23T00:07:28.183Z,99042.16
2022-08-23T00:09:57.743Z,99042.28
2022-08-23T00:12:26.665Z,99046.53
2022-08-23T00:14:56.583Z,99044.88
2022-08-23T00:17:34.023Z,99050.47
2022-08-23T00:20:03.250Z,99045.91
2022-08-23T00:22:31.249Z,99045.69
2022-08-23T00:24:59.197Z,99044.91
2022-08-23T00:27:27.085Z,99044.47
2022-08-23T00:29:58.718Z,99040.38
2022-08-23T00:32:36.619Z,99041.00
2022-08-23T00:35:06.280Z,99040.34
2022-08-23T00:37:34.741Z,99049.75
2022-08-23T00:40:03.128Z,99042.94
2022-08-23T00:42:53.462Z,99041.22
2022-08-23T00:45:46.382Z,99033.19
2022-08-23T00:48:15.113Z,99035.72
2022-08-23T00:50:52.053Z,99033.53
2022-08-23T00:53:24.591Z,99033.88
2022-08-23T00:55:57.677Z,99033.88
2022-08-23T00:58:26.091Z,99042.78
2022-08-23T01:00:58.184Z,99042.16
2022-08-23T01:03:29.057Z,99048.09
2022-08-23T01:06:11.256Z,99042.63
2022-08-23T01:08:40.678Z,99045.75
2022-08-23T01:11:14.196Z,99046.72
2022-08-23T01:13:46.907Z,99044.19
2022-08-23T01:16:21.918Z,99040.75
2022-08-23T01:18:51.018Z,99042.31
2022-08-23T01:21:25.698Z,99041.84
2022-08-23T01:23:59.601Z,99047.91
2022-08-23T01:26:28.525Z,99044.94
2022-08-23T01:28:56.826Z,99045.28
2022-08-23T01:31:25.273Z,99036.44
2022-08-23T01:33:59.306Z,99038.38
2022-08-23T01:36:28.058Z,99038.16
2022-08-23T01:38:57.923Z,99039.56
2022-08-23T01:41:26.288Z,99046.34
2022-08-23T01:43:54.311Z,99033.50
2022-08-23T01:46:26.182Z,99036.00
2022-08-23T01:48:55.290Z,99033.44
2022-08-23T01:51:25.020Z,99029.88
2022-08-23T01:53:53.539Z,99036.97
2022-08-23T01:56:27.597Z,99039.09
2022-08-23T01:59:08.635Z,99037.03
2022-08-23T02:01:41.828Z,99044.53
2022-08-23T02:04:10.216Z,99036.09
2022-08-23T02:06:39.108Z,99042.50
2022-08-23T02:09:18.028Z,99040.50
2022-08-23T02:11:48.700Z,99044.00
2022-08-23T02:14:20.193Z,99051.41
2022-08-23T02:17:03.940Z,99052.03
2022-08-23T02:19:37.112Z,99052.63
2022-08-23T02:22:08.434Z,99059.13
2022-08-23T02:24:40.118Z,99056.50
2022-08-23T02:27:10.724Z,99059.59
2022-08-23T02:29:41.437Z,99059.44
2022-08-23T02:32:14.360Z,99061.31
2022-08-23T02:37:29.793Z,99072.78
2022-08-23T02:39:58.155Z,99070.31
2022-08-23T02:42:27.598Z,99067.94
2022-08-23T02:44:55.718Z,99068.53
2022-08-23T02:47:23.669Z,99066.88
2022-08-23T02:50:07.561Z,99059.91
2022-08-23T02:52:35.889Z,99054.78
2022-08-23T02:55:04.292Z,99061.53
2022-08-23T02:57:33.517Z,99052.81
2022-08-23T03:00:05.374Z,99061.38
2022-08-23T03:02:33.432Z,99059.03
2022-08-23T03:05:01.778Z,99058.47
2022-08-23T03:07:31.146Z,99063.56
2022-08-23T03:09:59.523Z,99055.22
2022-08-23T03:12:28.815Z,99053.88
2022-08-23T03:14:59.272Z,99058.34
2022-08-23T03:17:28.156Z,99061.69
2022-08-23T03:19:56.319Z,99062.75
2022-08-23T03:22:25.964Z,99059.38
2022-08-23T03:24:55.087Z,99059.25
2022-08-23T03:27:44.889Z,99055.75
2022-08-23T03:30:19.107Z,99067.34
2022-08-23T03:32:53.377Z,99067.31
2022-08-23T03:35:22.274Z,99072.84
2022-08-23T03:37:54.684Z,99069.94
2022-08-23T03:40:24.081Z,99063.63
2022-08-23T03:42:52.850Z,99074.28
2022-08-23T03:45:25.241Z,99078.63
2022-08-23T03:47:53.100Z,99076.88
2022-08-23T03:50:21.763Z,99079.00
2022-08-23T03:52:49.927Z,99077.44
2022-08-23T03:55:18.587Z,99073.38
2022-08-23T03:57:49.882Z,99079.50
2022-08-23T04:00:20.432Z,99080.44
2022-08-23T04:02:52.236Z,99077.84
2022-08-23T04:05:21.876Z,99079.78
2022-08-23T04:08:09.258Z,99082.34
2022-08-23T04:10:39.371Z,99080.34
2022-08-23T04:13:09.148Z,99079.34
2022-08-23T04:15:38.271Z,99084.38
2022-08-23T04:18:09.361Z,99087.91
2022-08-23T04:20:38.061Z,99081.97
2022-08-23T04:23:06.892Z,99090.94
2022-08-23T04:25:45.352Z,99091.50
2022-08-23T04:28:13.326Z,99097.44
2022-08-23T04:30:41.394Z,99098.00
2022-08-23T04:33:15.142Z,99096.41
2022-08-23T04:35:45.987Z,99093.16
2022-08-23T04:38:24.589Z,99095.66
2022-08-23T04:41:13.076Z,99098.75
2022-08-23T04:43:42.134Z,99104.72
2022-08-23T04:46:13.527Z,99112.81
2022-08-23T04:48:43.126Z,99124.03
2022-08-23T04:51:11.815Z,99117.97
2022-08-23T04:53:40.524Z,99127.50
2022-08-23T04:56:31.173Z,99116.84
2022-08-23T04:58:59.050Z,99118.06
2022-08-23T05:01:28.112Z,99132.66
2022-08-23T05:03:58.507Z,99139.28
2022-08-23T05:06:28.697Z,99145.00
2022-08-23T05:08:56.831Z,99139.84
2022-08-23T05:11:25.317Z,99148.38
2022-08-23T05:13:53.581Z,99156.22
2022-08-23T05:16:21.764Z,99151.44
2022-08-23T05:19:12.245Z,99145.56
2022-08-23T05:21:45.477Z,99155.09
2022-08-23T05:24:13.961Z,99147.69
2022-08-23T05:26:44.410Z,99140.50
2022-08-23T05:29:12.632Z,99148.81
2022-08-23T05:31:46.831Z,99147.91
2022-08-23T05:34:17.968Z,99158.47
2022-08-23T05:36:55.844Z,99144.31
2022-08-23T05:39:36.033Z,99148.19
2022-08-23T05:42:09.312Z,99151.66
2022-08-23T05:44:38.039Z,99149.09
2022-08-23T05:47:11.115Z,99154.94
2022-08-23T05:49:56.948Z,99148.38
2022-08-23T05:52:26.235Z,99156.91
2022-08-23T05:54:54.067Z,99173.72
2022-08-23T05:57:41.746Z,99177.88
2022-08-23T06:00:13.707Z,99178.34
2022-08-23T06:02:48.514Z,99178.63
2022-08-23T06:05:19.703Z,99186.78
2022-08-23T06:07:49.309Z,99185.53
2022-08-23T06:10:20.380Z,99178.63
2022-08-23T06:12:53.727Z,99184.50
2022-08-23T06:15:22.365Z,99179.00
2022-08-23T06:17:50.346Z,99185.00
2022-08-23T06:20:20.359Z,99189.81
2022-08-23T06:23:08.977Z,99184.63
2022-08-23T06:25:40.997Z,99196.38
2022-08-23T06:28:13.540Z,99191.78
2022-08-23T06:30:43.415Z,99187.44
2022-08-23T06:33:31.694Z,99194.84
2022-08-23T06:36:19.704Z,99198.19
2022-08-23T06:39:14.306Z,99190.19
2022-08-23T06:42:00.757Z,99202.25
2022-08-23T06:44:31.959Z,99198.63
2022-08-23T06:47:10.199Z,99199.22
2022-08-23T06:49:38.203Z,99207.00
2022-08-23T06:52:08.070Z,99204.47
2022-08-23T06:54:57.595Z,99204.84
2022-08-23T06:57:28.621Z,99203.19
2022-08-23T07:00:21.922Z,99205.16
2022-08-23T07:03:04.011Z,99203.00
2022-08-23T07:05:50.536Z,99201.72
2022-08-23T07:08:23.312Z,99197.91
2022-08-23T07:10:51.454Z,99194.53
2022-08-23T07:13:19.572Z,99199.09
2022-08-23T07:15:50.117Z,99194.44
2022-08-23T07:18:20.720Z,99192.53
2022-08-23T07:20:49.694Z,99188.03
2022-08-23T07:23:17.966Z,99192.31
2022-08-23T07:25:47.894Z,99199.69
2022-08-23T07:28:19.342Z,99202.53
2022-08-23T07:30:47.317Z,99201.88
2022-08-23T07:33:15.821Z,99209.41
2022-08-23T07:36:04.668Z,99213.56
2022-08-23T07:38:33.514Z,99206.84
2022-08-23T07:41:04.597Z,99204.31
2022-08-23T07:43:34.403Z,99211.06
2022-08-23T07:46:04.262Z,99208.97
2022-08-23T07:48:52.895Z,99212.28
2022-08-23T07:51:24.389Z,99213.13
2022-08-23T07:53:52.440Z,99220.50
2022-08-23T07:56:23.267Z,99219.59
2022-08-23T07:58:58.815Z,99218.78
2022-08-23T08:01:34.902Z,99219.59
2022-08-23T08:04:04.281Z,99221.59
2022-08-23T08:06:37.825Z,99224.41
2022-08-23T08:09:06.147Z,99220.53
2022-08-23T08:11:36.023Z,99218.19
2022-08-23T08:14:07.585Z,99223.59
2022-08-23T08:16:39.615Z,99222.28
2022-08-23T08:19:09.586Z,99223.84
2022-08-23T08:21:56.322Z,99225.78
2022-08-23T08:24:44.669Z,99232.13
2022-08-23T08:27:15.425Z,99229.59
2022-08-23T08:29:44.445Z,99219.91
2022-08-23T08:32:13.903Z,99224.19
2022-08-23T08:34:43.531Z,99237.22
2022-08-23T08:37:12.492Z,99227.25
2022-08-23T08:39:45.690Z,99237.59
2022-08-23T08:42:42.415Z,99232.47
2022-08-23T08:45:13.377Z,99228.19
2022-08-23T08:47:49.891Z,99233.19
2022-08-23T08:50:26.472Z,99230.94
2022-08-23T08:53:02.758Z,99227.72
2022-08-23T08:55:52.955Z,99240.84
2022-08-23T08:58:27.960Z,99244.13
2022-08-23T09:00:57.326Z,99237.63
2022-08-23T09:03:32.621Z,99241.28
2022-08-23T09:06:04.483Z,99235.06
2022-08-23T09:08:45.841Z,99244.69
2022-08-23T09:11:23.853Z,99243.09
2022-08-23T09:14:18.398Z,99239.97
2022-08-23T09:16:53.702Z,99242.72
2022-08-23T09:19:53.456Z,99233.44
2022-08-23T09:22:48.710Z,99234.13
2022-08-23T09:25:31.404Z,99232.41
2022-08-23T09:28:21.876Z,99230.25
2022-08-23T09:31:12.784Z,99228.81
2022-08-23T09:33:47.595Z,99230.53
2022-08-23T09:36:39.677Z,99228.00
2022-08-23T09:39:44.573Z,99224.78
2022-08-23T09:42:30.402Z,99225.66
2022-08-23T09:48:22.780Z,99216.91
2022-08-23T09:55:17.977Z,99205.66
2022-08-23T10:06:27.872Z,99203.72
2022-08-23T10:13:17.198Z,99199.13
2022-08-23T10:16:01.449Z,99198.94
2022-08-23T10:18:56.608Z,99194.81
2022-08-23T10:21:52.703Z,99200.22
2022-08-23T10:24:47.912Z,99201.09
2022-08-23T10:28:20.720Z,99192.22
2022-08-23T10:31:42.857Z,99195.81
2022-08-23T10:37:50.480Z,99194.16
2022-08-23T10:41:00.685Z,99180.56
2022-08-23T10:44:26.388Z,99185.13
2022-08-23T10:47:28.539Z,99179.97
2022-08-23T10:50:07.963Z,99177.94
2022-08-23T10:52:51.315Z,99181.19
2022-08-23T10:59:30.466Z,99173.53
2022-08-23T11:02:40.103Z,99167.25
2022-08-23T11:05:34.080Z,99172.06
2022-08-23T11:09:03.293Z,99159.28
2022-08-23T11:12:12.523Z,99166.50
2022-08-23T11:15:19.615Z,99160.13
2022-08-23T11:18:31.313Z,99159.84
2022-08-23T11:21:58.588Z,99160.78
2022-08-23T11:25:11.742Z,99159.13
2022-08-23T11:28:35.466Z,99150.50
2022-08-23T11:32:29.795Z,99146.97
2022-08-23T11:35:31.446Z,99130.06
2022-08-23T11:38:04.788Z,99140.75
2022-08-23T11:41:00.278Z,99133.94
2022-08-23T11:43:37.064Z,99126.69
2022-08-23T11:46:36.031Z,99134.41
2022-08-23T11:49:31.864Z,99127.88
2022-08-23T11:52:11.276Z,99138.38
2022-08-23T11:54:57.158Z,99137.50
2022-08-23T11:57:35.766Z,99124.66
2022-08-23T12:00:29.472Z,99137.69
2022-08-23T12:03:05.344Z,99124.91
2022-08-23T12:06:21.471Z,99138.88
2022-08-23T12:08:55.481Z,99138.06
2022-08-23T12:11:26.455Z,99133.56
2022-08-23T12:14:01.233Z,99133.88
2022-08-23T12:16:39.659Z,99132.94
2022-08-23T12:19:30.812Z,99129.59
2022-08-23T12:22:06.606Z,99131.66
2022-08-23T12:24:42.769Z,99126.84
2022-08-23T12:27:27.644Z,99134.91
2022-08-23T12:30:02.818Z,99124.47
2022-08-23T12:32:42.249Z,99121.59
2022-08-23T12:35:32.985Z,99123.34
2022-08-23T12:38:07.942Z,99114.44
2022-08-23T12:40:42.492Z,99109.81
2022-08-23T12:43:22.819Z,99111.13
2022-08-23T12:45:53.367Z,99105.88
2022-08-23T12:48:24.576Z,99108.19
2022-08-23T12:50:58.670Z,99103.13
2022-08-23T12:53:30.247Z,99100.59
2022-08-23T12:56:03.011Z,99109.56
2022-08-23T12:58:36.690Z,99105.47
2022-08-23T13:01:08.064Z,99098.03
2022-08-23T13:03:40.097Z,99106.19
2022-08-23T13:06:12.153Z,99099.84
2022-08-23T13:08:43.397Z,99099.47
2022-08-23T13:11:14.033Z,99095.31
2022-08-23T13:13:45.272Z,99095.44
2022-08-23T13:16:28.848Z,99093.09
2022-08-23T13:19:11.198Z,99092.56
2022-08-23T13:21:40.241Z,99099.75
2022-08-23T13:24:37.912Z,99078.13
2022-08-23T13:27:22.998Z,99087.13
2022-08-23T13:29:58.004Z,99080.00
2022-08-23T13:32:32.265Z,99075.75
2022-08-23T13:35:38.751Z,99080.06
2022-08-23T13:38:18.504Z,99076.19
2022-08-23T13:40:56.341Z,99082.66
2022-08-23T13:43:28.305Z,99079.72
2022-08-23T13:46:01.303Z,99069.97
2022-08-23T13:48:33.078Z,99078.72
2022-08-23T13:51:31.372Z,99072.13
2022-08-23T13:54:02.900Z,99069.91
2022-08-23T13:56:35.442Z,99068.31
2022-08-23T13:59:08.957Z,99074.91
2022-08-23T14:01:38.531Z,99073.09
2022-08-23T14:04:07.846Z,99078.34
2022-08-23T14:06:35.893Z,99064.19
2022-08-23T14:09:06.632Z,99063.09
2022-08-23T14:11:35.819Z,99072.34
2022-08-23T14:14:04.514Z,99060.44
2022-08-23T14:16:39.233Z,99064.47
2022-08-23T14:20:31.444Z,99054.38
2022-08-23T14:21:59.936Z,99060.03
2022-08-23T14:24:29.095Z,99069.03
2022-08-23T14:26:57.810Z,99067.41
2022-08-23T14:29:28.997Z,99066.72
2022-08-23T14:31:58.522Z,99063.91
2022-08-23T14:34:28.970Z,99068.59
2022-08-23T14:39:45.145Z,99065.66
2022-08-23T14:42:15.647Z,99065.63
2022-08-23T14:44:43.642Z,99058.94
2022-08-23T14:47:11.649Z,99054.63
2022-08-23T14:49:41.000Z,99057.84
2022-08-23T14:52:09.286Z,99061.19
2022-08-23T14:54:38.080Z,99065.09
2022-08-23T14:57:06.736Z,99056.88
2022-08-23T14:59:34.865Z,99048.88
2022-08-23T15:02:04.164Z,99057.16
2022-08-23T15:04:34.881Z,99054.53
2022-08-23T15:07:17.645Z,99051.06
2022-08-23T15:09:47.057Z,99042.44
2022-08-23T15:15:03.298Z,99042.19
2022-08-23T15:17:31.789Z,99045.25
2022-08-23T15:20:00.223Z,99048.13
2022-08-23T15:22:29.577Z,99042.84
2022-08-23T15:24:57.470Z,99042.97
2022-08-23T15:27:25.699Z,99044.22
2022-08-23T15:29:53.760Z,99042.81
2022-08-23T15:32:22.672Z,99045.13
2022-08-23T15:34:51.490Z,99035.78
2022-08-23T15:37:22.243Z,99035.16
2022-08-23T15:39:51.848Z,99034.44
2022-08-23T15:42:20.113Z,99042.84
2022-08-23T15:44:49.010Z,99039.75
2022-08-23T15:47:23.961Z,99030.84
2022-08-23T15:49:52.003Z,99035.25
2022-08-23T15:52:20.623Z,99035.63
2022-08-23T15:54:49.379Z,99042.78
2022-08-23T15:57:23.062Z,99045.34
2022-08-23T15:59:50.936Z,99041.50
2022-08-23T16:02:18.838Z,99042.56
2022-08-23T16:04:46.846Z,99039.47
2022-08-23T16:07:17.009Z,99040.34
2022-08-23T16:09:45.542Z,99037.00
2022-08-23T16:12:13.434Z,99037.78
2022-08-23T16:14:42.613Z,99041.13
2022-08-23T16:17:10.971Z,99043.03
2022-08-23T16:19:38.929Z,99038.25
2022-08-23T16:22:06.994Z,99040.34
2022-08-23T16:24:34.955Z,99027.84
2022-08-23T16:27:03.057Z,99037.38
2022-08-23T16:29:33.366Z,99037.47
2022-08-23T16:32:02.713Z,99038.81
2022-08-23T16:34:30.752Z,99035.75
2022-08-23T16:37:02.781Z,99033.06
2022-08-23T16:39:32.697Z,99038.06
2022-08-23T16:42:05.360Z,99034.56
2022-08-23T16:44:34.315Z,99044.72
2022-08-23T16:47:06.790Z,99044.47
2022-08-23T16:49:34.853Z,99041.19
2022-08-23T16:52:02.930Z,99042.81
2022-08-23T16:54:30.967Z,99052.09
2022-08-23T16:56:58.830Z,99042.63
2022-08-23T16:59:26.801Z,99047.81
2022-08-23T17:01:57.649Z,99051.06
2022-08-23T17:04:30.529Z,99054.38
2022-08-23T17:06:59.939Z,99045.50
2022-08-23T17:09:29.554Z,99039.53
2022-08-23T17:11:59.238Z,99040.50
2022-08-23T17:14:28.477Z,99037.00
2022-08-23T17:16:56.375Z,99039.97
2022-08-23T17:19:24.845Z,99043.28
2022-08-23T17:21:54.280Z,99042.16
2022-08-23T17:24:24.333Z,99039.13
2022-08-23T17:26:52.030Z,99046.84
2022-08-23T17:29:20.331Z,99048.88
2022-08-23T17:31:48.699Z,99050.97
2022-08-23T17:34:16.709Z,99050.38
2022-08-23T17:36:47.728Z,99052.09
2022-08-23T17:39:20.114Z,99054.38
2022-08-23T17:41:48.212Z,99058.97
2022-08-23T17:44:16.650Z,99054.28
2022-08-23T17:46:46.610Z,99058.06
2022-08-23T17:49:15.373Z,99056.66
2022-08-23T17:51:43.471Z,99061.53
2022-08-23T17:54:15.832Z,99066.28
2022-08-23T17:56:50.478Z,99061.84
2022-08-23T17:59:19.149Z,99061.97
2022-08-23T18:01:46.962Z,99065.75
2022-08-23T18:04:14.868Z,99066.22
2022-08-23T18:06:42.732Z,99066.63
2022-08-23T18:09:10.831Z,99068.25
2022-08-23T18:11:39.090Z,99066.47
2022-08-23T18:14:08.478Z,99071.59
2022-08-23T18:16:36.513Z,99079.06
2022-08-23T18:19:06.311Z,99079.31
2022-08-23T18:21:40.126Z,99077.78
2022-08-23T18:24:09.359Z,99080.59
2022-08-23T18:26:57.722Z,99089.38
2022-08-23T18:29:27.542Z,99091.91
2022-08-23T18:31:56.273Z,99092.16
2022-08-23T18:34:24.927Z,99090.22
2022-08-23T18:36:53.813Z,99098.81
2022-08-23T18:39:27.674Z,99093.59
2022-08-23T18:42:01.193Z,99101.25
2022-08-23T18:44:30.615Z,99102.03
2022-08-23T18:46:59.471Z,99107.50
2022-08-23T18:49:27.343Z,99101.38
2022-08-23T18:51:56.037Z,99100.34
2022-08-23T18:54:23.894Z,99113.00
2022-08-23T18:56:52.063Z,99115.53
2022-08-23T18:59:20.081Z,99130.31
2022-08-23T19:01:49.521Z,99127.69
2022-08-23T19:04:17.483Z,99131.03
2022-08-23T19:06:45.467Z,99134.84
2022-08-23T19:09:13.835Z,99141.13
2022-08-23T19:11:42.475Z,99143.53
2022-08-23T19:14:12.687Z,99151.56
2022-08-23T19:16:47.230Z,99150.78
2022-08-23T19:19:18.721Z,99164.78
2022-08-23T19:21:46.754Z,99166.09
2022-08-23T19:24:14.903Z,99164.28
2022-08-23T19:26:47.566Z,99163.78
2022-08-23T19:29:16.093Z,99165.59
2022-08-23T19:31:47.933Z,99170.28
2022-08-23T19:34:18.424Z,99179.06
2022-08-23T19:36:49.258Z,99179.84
2022-08-23T19:39:20.276Z,99183.47
2022-08-23T19:41:48.834Z,99175.69
2022-08-23T19:44:17.773Z,99191.56
2022-08-23T19:46:46.130Z,99190.13
2022-08-23T19:49:15.240Z,99184.47
2022-08-23T19:51:45.029Z,99188.88
2022-08-23T19:54:13.206Z,99195.28
2022-08-23T19:56:43.474Z,99208.56
2022-08-23T19:59:15.348Z,99201.22
2022-08-23T20:01:43.343Z,99208.06
2022-08-23T20:04:12.115Z,99214.69
2022-08-23T20:06:40.168Z,99215.72
2022-08-23T20:09:10.113Z,99215.81
2022-08-23T20:11:38.445Z,99222.41
2022-08-23T20:14:07.275Z,99220.84
2022-08-23T20:16:36.204Z,99230.13
2022-08-23T20:19:05.984Z,99230.91
2022-08-23T20:21:33.985Z,99225.88
2022-08-23T20:24:01.045Z,99234.56
2022-08-23T20:26:33.850Z,99234.47
2022-08-23T20:29:02.607Z,99231.03
2022-08-23T20:31:33.330Z,99236.22
2022-08-23T20:34:01.608Z,99243.84
2022-08-23T20:36:30.110Z,99236.78
2022-08-23T20:38:59.988Z,99240.47
2022-08-23T20:41:31.021Z,99237.31
2022-08-23T20:43:59.792Z,99242.50
2022-08-23T20:46:27.968Z,99237.25
2022-08-23T20:48:57.531Z,99243.72
2022-08-23T20:51:26.735Z,99244.03
2022-08-23T20:53:55.924Z,99249.72
2022-08-23T20:56:25.100Z,99252.97
2022-08-23T20:58:54.484Z,99256.28
2022-08-23T21:01:23.124Z,99247.81
2022-08-23T21:03:51.149Z,99250.47
2022-08-23T21:06:22.007Z,99253.72
2022-08-23T21:08:53.497Z,99258.66
2022-08-23T21:11:22.733Z,99253.63
2022-08-23T21:13:50.899Z,99255.06
2022-08-23T21:16:20.665Z,99259.94
2022-08-23T21:18:49.369Z,99261.41
2022-08-23T21:21:21.415Z,99262.84
2022-08-23T21:23:50.776Z,99262.34
2022-08-23T21:26:19.303Z,99262.38
2022-08-23T21:28:47.400Z,99253.66
2022-08-23T21:31:17.483Z,99261.03
2022-08-23T21:33:47.763Z,99265.44
2022-08-23T21:36:16.541Z,99261.94
2022-08-23T21:38:45.491Z,99274.38
2022-08-23T21:41:29.694Z,99269.78
2022-08-23T21:43:57.503Z,99268.88
2022-08-23T21:46:25.562Z,99269.78
2022-08-23T21:48:54.737Z,99265.22
2022-08-23T21:51:23.254Z,99265.66
2022-08-23T21:53:51.210Z,99272.31
2022-08-23T21:56:20.512Z,99271.75
2022-08-23T21:58:50.608Z,99267.72
2022-08-23T22:01:19.646Z,99272.66
2022-08-23T22:03:47.560Z,99269.03
2022-08-23T22:06:18.809Z,99273.38
2022-08-23T22:08:46.870Z,99273.53
2022-08-23T22:11:16.007Z,99280.97
2022-08-23T22:13:44.756Z,99282.53
2022-08-23T22:16:13.155Z,99278.78
2022-08-23T22:18:42.821Z,99273.53
2022-08-23T22:21:10.808Z,99279.34
2022-08-23T22:23:43.239Z,99274.44
2022-08-23T22:26:13.988Z,99283.59
2022-08-23T22:28:44.876Z,99279.31
2022-08-23T22:31:15.208Z,99284.44
2022-08-23T22:33:45.128Z,99285.53
2022-08-23T22:36:16.549Z,99281.41
2022-08-23T22:38:46.732Z,99275.44
2022-08-23T22:41:17.683Z,99282.41
2022-08-23T22:43:45.881Z,99285.53
2022-08-23T22:46:14.237Z,99282.41
2022-08-23T22:48:42.167Z,99283.69
2022-08-23T22:51:12.109Z,99279.16
2022-08-23T22:53:41.701Z,99276.94
2022-08-23T22:56:12.943Z,99282.13
2022-08-23T22:58:41.276Z,99278.19
2022-08-23T23:01:13.090Z,99274.19
2022-08-23T23:03:41.648Z,99278.59
2022-08-23T23:06:10.353Z,99283.47
2022-08-23T23:08:38.236Z,99283.00
2022-08-23T23:11:09.203Z,99278.50
2022-08-23T23:13:39.055Z,99290.81
2022-08-23T23:16:09.478Z,99289.44
2022-08-23T23:18:40.217Z,99290.41
2022-08-23T23:21:07.718Z,99286.44
2022-08-23T23:23:37.373Z,99289.22
2022-08-23T23:26:08.163Z,99283.78
2022-08-23T23:28:36.122Z,99287.59
2022-08-23T23:31:05.739Z,99287.41
2022-08-23T23:33:35.012Z,99292.56
2022-08-23T23:36:03.041Z,99286.41
2022-08-23T23:38:30.931Z,99286.81
2022-08-23T23:40:58.846Z,99288.19
2022-08-23T23:43:26.694Z,99288.25
2022-08-23T23:45:54.711Z,99301.53
2022-08-23T23:48:23.900Z,99306.78
2022-08-23T23:50:51.883Z,99301.09
2022-08-23T23:53:20.284Z,99302.44
2022-08-23T23:55:48.762Z,99305.66
2022-08-23T23:58:16.634Z,99299.88
